首页
METAR-TAF:

METAR-TAF

机场 :

瓜达尔, 巴基斯坦

纬度: 25-13-59N, 经度: 062-19-46E, 海拔: 29米

当前天气观测

该预报发布于20小时和28分钟前的11:55 UTC
风速8节,风向
温度 26°C
湿度 51%
气压
能見度: 7000

METAR: OPGD 091155Z 18008KT 7000 HZ NSC 26/15 QNH1016

时间: 13:23 (08:23 UTC)

预报

该预报发布于4小时和23分钟前的04:00 UTC
预报有效从10日的 06点(UTC)到 11日的 06点(UTC)
风速8节,风向西转西南,有时为18节阵风
能見度: 6000
成为
从 10日的 18点(UTC)到 10日的 20点(UTC)
风速6节,风向西
能見度: 5000
短暂存在
从 11日的 00点(UTC)到 11日的 04点(UTC)
风速3节,风向多变
能見度: 2500

TAF: OPGD 100400Z 1006/1106 25008G18KT 6000 NSC BECMG 1018/1020 27006KT 5000 HZ NSC TEMPO 1100/1104 VRB03KT 2500 FU NSC

超过4000个机场的气象观测和天气预报(METAR&TAF报告)。

可查询的气象台以黄色和红色小点在地图上表示。

将鼠标移到小点上方,可查看气象台名称。

然后点击查看天气观测和预报。

如需切换地图:点击带黑十字的绿色按钮放大地图;点击带横线的绿色按钮缩小地图;或者点击绿色箭头查看邻近地区的地图。


METAR-TAF: